TimeEST,TemperatureF,Dew PointF,Humidity,Sea Level PressureIn,VisibilityMPH,Wind Direction,Wind SpeedMPH,Gust SpeedMPH,PrecipitationIn,Events,Conditions,WindDirDegrees,DateUTC
12:56 AM,27.0,8.1,45,29.96,10.0,NW,8.1,-,N/A,,Overcast,320,2013-01-02 05:56:00
1:56 AM,26.1,10.0,51,29.98,10.0,NW,8.1,-,N/A,,Overcast,320,2013-01-02 06:56:00
2:56 AM,26.1,10.9,53,29.98,10.0,NW,9.2,-,N/A,,Overcast,310,2013-01-02 07:56:00
3:56 AM,25.0,9.0,51,29.98,10.0,NNW,11.5,-,N/A,,Overcast,330,2013-01-02 08:56:00
4:56 AM,24.1,10.0,55,29.99,10.0,NNW,11.5,-,N/A,,Overcast,340,2013-01-02 09:56:00
5:56 AM,23.0,10.0,58,29.99,10.0,NW,10.4,-,N/A,,Overcast,320,2013-01-02 10:56:00
6:56 AM,23.0,10.0,58,30.01,10.0,NW,8.1,-,N/A,,Mostly Cloudy,320,2013-01-02 11:56:00
7:56 AM,23.0,10.0,58,30.01,10.0,NW,6.9,-,N/A,,Mostly Cloudy,310,2013-01-02 12:56:00
8:56 AM,24.1,10.0,55,30.03,10.0,West,8.1,-,N/A,,Mostly Cloudy,280,2013-01-02 13:56:00
9:56 AM,26.1,10.0,51,30.05,10.0,WNW,11.5,-,N/A,,Mostly Cloudy,300,2013-01-02 14:56:00
10:56 AM,28.9,10.0,45,30.04,10.0,NW,13.8,21.9,N/A,,Mostly Cloudy,310,2013-01-02 15:56:00
11:56 AM,28.9,10.0,45,30.01,10.0,NW,13.8,25.3,N/A,,Mostly Cloudy,310,2013-01-02 16:56:00
12:56 PM,30.0,10.9,45,29.99,10.0,WNW,15.0,26.5,N/A,,Mostly Cloudy,290,2013-01-02 17:56:00
1:56 PM,30.9,12.0,46,30.00,10.0,WNW,12.7,-,N/A,,Mostly Cloudy,300,2013-01-02 18:56:00
2:56 PM,32.0,12.9,45,30.02,10.0,NW,12.7,-,N/A,,Mostly Cloudy,310,2013-01-02 19:56:00
3:56 PM,30.9,12.9,47,30.03,10.0,WNW,11.5,-,N/A,,Mostly Cloudy,300,2013-01-02 20:56:00
4:56 PM,30.0,14.0,51,30.05,10.0,NW,8.1,-,N/A,,Mostly Cloudy,310,2013-01-02 21:56:00
5:56 PM,30.0,12.9,49,30.08,10.0,NW,9.2,-,N/A,,Mostly Cloudy,310,2013-01-02 22:56:00
6:56 PM,30.0,14.0,51,30.10,10.0,WNW,5.8,-,N/A,,Mostly Cloudy,290,2013-01-02 23:56:00
7:56 PM,30.0,14.0,51,30.10,10.0,West,5.8,-,N/A,,Mostly Cloudy,280,2013-01-03 00:56:00
8:56 PM,28.9,15.1,56,30.11,10.0,West,5.8,-,N/A,,Mostly Cloudy,280,2013-01-03 01:56:00
9:56 PM,28.9,15.1,56,30.13,10.0,West,6.9,-,N/A,,Mostly Cloudy,280,2013-01-03 02:56:00
10:56 PM,28.9,15.1,56,30.14,10.0,West,5.8,-,N/A,,Mostly Cloudy,280,2013-01-03 03:56:00
11:56 PM,28.0,16.0,61,30.14,10.0,West,5.8,-,N/A,,Mostly Cloudy,280,2013-01-03 04:56:00